Time;durP1;ratioP1;P1;durP2;ratioP2;P2;SDS_P1;SDS_P2;PMS_P1;PMS_P2;Temp;Humidity;BMP_temperature;BMP_pressure;BME280_temperature;BME280_humidity;BME280_pressure;Samples;Min_cycle;Max_cycle;Signal;HPM_P1;HPM_P2
2022/09/29 00:00:48;;;;;;;18.25;12.18;;;9.70;99.90;;;;;;5017978;28;20037;-80
2022/09/29 00:03:14;;;;;;;29.48;17.92;;;9.70;99.90;;;;;;5034531;28;20022;-86
2022/09/29 00:05:45;;;;;;;20.85;12.57;;;9.70;99.90;;;;;;5035420;28;20028;-80
2022/09/29 00:08:10;;;;;;;16.02;10.98;;;9.60;99.90;;;;;;5035308;28;20033;-80
2022/09/29 00:10:39;;;;;;;14.93;9.65;;;9.60;99.90;;;;;;5017626;28;20021;-79
2022/09/29 00:13:04;;;;;;;14.75;10.32;;;9.50;99.90;;;;;;5035486;28;20021;-80
2022/09/29 00:15:30;;;;;;;17.05;10.38;;;9.50;99.90;;;;;;5017816;28;20028;-86
2022/09/29 00:17:56;;;;;;;14.70;10.90;;;9.40;99.90;;;;;;5017933;28;20013;-81
2022/09/29 00:20:21;;;;;;;15.35;10.55;;;9.40;99.90;;;;;;5017460;28;20483;-87
2022/09/29 00:22:50;;;;;;;13.18;10.32;;;9.40;99.90;;;;;;5034115;28;20391;-81
2022/09/29 00:25:16;;;;;;;18.33;10.38;;;9.40;99.90;;;;;;5035003;28;20422;-80
2022/09/29 00:27:42;;;;;;;20.90;12.82;;;9.40;99.90;;;;;;5017587;28;20432;-86
2022/09/29 00:30:08;;;;;;;13.65;10.23;;;9.40;99.90;;;;;;5017369;28;20117;-80
2022/09/29 00:32:34;;;;;;;12.85;9.25;;;9.40;99.90;;;;;;5034878;28;20034;-80
2022/09/29 00:34:59;;;;;;;14.32;8.82;;;9.40;99.90;;;;;;5017110;28;20028;-86
2022/09/29 00:37:25;;;;;;;12.15;8.80;;;9.40;99.90;;;;;;5035010;28;20025;-84
2022/09/29 00:39:50;;;;;;;12.82;9.15;;;9.40;99.90;;;;;;5034780;28;20483;-79
2022/09/29 00:42:18;;;;;;;11.25;7.70;;;9.50;99.90;;;;;;5034984;28;20018;-79
2022/09/29 00:45:03;;;;;;;12.75;7.50;;;9.50;99.90;;;;;;5016903;28;20475;-85
2022/09/29 00:47:31;;;;;;;18.67;8.57;;;9.50;99.90;;;;;;5016993;28;20045;-85
2022/09/29 00:50:08;;;;;;;9.65;6.68;;;9.50;99.90;;;;;;5016770;28;20029;-79
2022/09/29 00:52:40;;;;;;;10.43;6.43;;;9.40;99.90;;;;;;5034614;28;20045;-79
2022/09/29 00:55:25;;;;;;;8.65;6.65;;;9.50;99.90;;;;;;5016811;28;20033;-85
2022/09/29 00:57:55;;;;;;;12.80;7.25;;;9.40;99.90;;;;;;5015048;28;20092;-80
2022/09/29 01:00:21;;;;;;;12.38;6.50;;;9.50;99.90;;;;;;4997006;28;20105;-86
2022/09/29 01:03:01;;;;;;;12.95;6.68;;;9.40;99.90;;;;;;5014501;28;20113;-85
2022/09/29 01:05:38;;;;;;;8.27;7.22;;;9.40;99.90;;;;;;4997336;28;20045;-84
2022/09/29 01:08:19;;;;;;;10.80;7.32;;;9.40;99.90;;;;;;5014725;28;20487;-85
2022/09/29 01:10:47;;;;;;;9.50;6.50;;;9.30;99.90;;;;;;4997349;28;20097;-85
2022/09/29 01:13:13;;;;;;;8.88;6.57;;;9.30;99.90;;;;;;4996792;28;20029;-79
2022/09/29 01:15:39;;;;;;;12.57;7.85;;;9.20;99.90;;;;;;4997017;28;20060;-83
2022/09/29 01:18:05;;;;;;;10.48;7.30;;;9.20;99.90;;;;;;5014598;28;20058;-80
2022/09/29 01:20:34;;;;;;;9.52;6.53;;;9.10;99.90;;;;;;4996880;28;20514;-84
2022/09/29 01:23:18;;;;;;;12.35;6.50;;;9.00;99.90;;;;;;5014378;28;20025;-79
2022/09/29 01:26:37;;;;;;;8.25;6.63;;;9.10;99.90;;;;;;5014273;28;20030;-79
2022/09/29 01:29:24;;;;;;;9.80;7.50;;;9.00;99.90;;;;;;4973094;28;20035;-79
2022/09/29 01:31:58;;;;;;;11.85;7.30;;;9.10;99.90;;;;;;5014207;28;20050;-84
2022/09/29 01:34:47;;;;;;;11.15;6.82;;;9.10;99.90;;;;;;5015933;28;20032;-79
2022/09/29 01:37:50;;;;;;;9.43;6.88;;;9.10;99.90;;;;;;5015938;28;20037;-79
2022/09/29 01:40:22;;;;;;;10.65;7.57;;;9.00;99.90;;;;;;5033784;28;20025;-79
2022/09/29 01:42:59;;;;;;;11.05;8.15;;;9.00;99.90;;;;;;5016152;28;20017;-79
2022/09/29 01:45:43;;;;;;;10.32;7.30;;;9.10;99.90;;;;;;5016061;28;20017;-84
2022/09/29 01:48:21;;;;;;;10.52;8.25;;;9.10;99.90;;;;;;5033687;28;20038;-86
2022/09/29 01:50:51;;;;;;;12.23;8.35;;;9.10;99.90;;;;;;5015763;28;20490;-80
2022/09/29 01:53:29;;;;;;;10.50;7.70;;;9.10;99.90;;;;;;5033573;28;20467;-85
2022/09/29 01:56:02;;;;;;;10.02;7.85;;;9.10;99.90;;;;;;5032246;28;20040;-78
2022/09/29 01:58:41;;;;;;;10.98;7.13;;;9.10;99.90;;;;;;5032642;28;20025;-79
2022/09/29 02:01:11;;;;;;;8.88;6.75;;;9.10;99.90;;;;;;5033475;28;20490;-79
2022/09/29 02:03:42;;;;;;;10.57;7.00;;;9.10;99.90;;;;;;5032417;28;20163;-85
2022/09/29 02:06:14;;;;;;;12.25;6.75;;;9.10;99.90;;;;;;5032039;28;20045;-79
2022/09/29 02:08:47;;;;;;;7.75;5.80;;;9.00;99.90;;;;;;5033280;28;20033;-79
2022/09/29 02:11:15;;;;;;;8.48;6.25;;;9.00;99.90;;;;;;5032009;28;20127;-84
2022/09/29 02:13:56;;;;;;;10.75;6.88;;;8.90;99.90;;;;;;5032300;28;20030;-84
2022/09/29 02:16:29;;;;;;;9.88;6.45;;;9.00;99.90;;;;;;5033302;28;20361;-84
2022/09/29 02:19:05;;;;;;;11.02;6.68;;;9.00;99.90;;;;;;5033372;28;20096;-84
2022/09/29 02:21:30;;;;;;;7.82;6.50;;;9.00;99.90;;;;;;5033311;28;20107;-79
2022/09/29 02:23:57;;;;;;;11.88;6.57;;;9.00;99.90;;;;;;5031949;28;20017;-79
2022/09/29 02:26:24;;;;;;;11.23;7.60;;;9.00;99.90;;;;;;5032022;28;20121;-84
2022/09/29 02:28:51;;;;;;;10.52;6.72;;;9.00;99.90;;;;;;5031767;28;20039;-79
2022/09/29 02:31:18;;;;;;;10.88;7.38;;;9.00;99.90;;;;;;5031741;28;20025;-83
2022/09/29 02:33:44;;;;;;;10.60;6.97;;;9.00;99.90;;;;;;5027557;28;20483;-79
2022/09/29 02:36:28;;;;;;;11.15;6.97;;;9.00;99.90;;;;;;5031956;28;20068;-83
2022/09/29 02:39:02;;;;;;;11.45;8.30;;;9.00;99.90;;;;;;5031813;28;20030;-79
2022/09/29 02:41:27;;;;;;;14.40;8.82;;;9.00;99.90;;;;;;5031454;28;20021;-86
2022/09/29 02:44:06;;;;;;;12.60;7.93;;;9.00;99.90;;;;;;5015524;28;20052;-79
2022/09/29 02:46:44;;;;;;;7.57;6.78;;;9.10;99.90;;;;;;5035046;28;20026;-78
2022/09/29 02:50:05;;;;;;;11.18;7.60;;;9.00;99.90;;;;;;5019288;28;20430;-83
2022/09/29 02:53:03;;;;;;;11.40;8.13;;;9.00;99.90;;;;;;4940543;29;20062;-83
2022/09/29 02:55:48;;;;;;;11.27;8.10;;;9.00;99.90;;;;;;4956564;29;20031;-78
2022/09/29 02:58:31;;;;;;;14.10;7.75;;;9.00;99.90;;;;;;5013426;28;20029;-82
2022/09/29 03:00:58;;;;;;;10.93;7.30;;;9.00;99.90;;;;;;5017034;28;20058;-78
2022/09/29 03:03:24;;;;;;;13.93;7.82;;;9.00;99.90;;;;;;5016885;28;20106;-83
2022/09/29 03:05:50;;;;;;;13.07;9.30;;;9.00;99.90;;;;;;4999226;28;20060;-82
2022/09/29 03:08:16;;;;;;;12.07;8.68;;;9.00;99.90;;;;;;4998767;28;20037;-78
2022/09/29 03:10:42;;;;;;;13.73;8.63;;;9.00;99.90;;;;;;5016897;28;20029;-78
2022/09/29 03:13:07;;;;;;;13.50;9.07;;;8.90;99.90;;;;;;4998992;28;20484;-83
2022/09/29 03:15:33;;;;;;;11.15;8.27;;;9.00;99.90;;;;;;5016900;28;20030;-84
2022/09/29 03:17:59;;;;;;;11.32;7.45;;;9.00;99.90;;;;;;5016602;28;20022;-80
2022/09/29 03:20:25;;;;;;;11.10;7.47;;;8.90;99.90;;;;;;4995824;28;20443;-84
2022/09/29 03:22:55;;;;;;;14.00;7.85;;;8.90;99.90;;;;;;4996987;28;20412;-79
2022/09/29 03:25:22;;;;;;;11.77;7.82;;;8.90;99.90;;;;;;4995786;28;20468;-84
2022/09/29 03:27:49;;;;;;;13.77;8.15;;;8.90;99.90;;;;;;4996760;28;20534;-84
2022/09/29 03:30:15;;;;;;;14.55;7.88;;;8.90;99.90;;;;;;4996788;28;20101;-84
2022/09/29 03:32:42;;;;;;;10.75;7.93;;;8.90;99.90;;;;;;5006668;28;20018;-79
2022/09/29 03:35:08;;;;;;;11.02;8.68;;;8.90;99.90;;;;;;5015198;28;20446;-84
2022/09/29 03:37:34;;;;;;;13.40;9.30;;;8.80;99.90;;;;;;5016387;28;20037;-79
2022/09/29 03:39:59;;;;;;;11.15;7.65;;;8.80;99.90;;;;;;5016240;28;20026;-78
2022/09/29 03:42:27;;;;;;;12.88;7.03;;;8.70;99.90;;;;;;5016180;28;20029;-79
2022/09/29 03:44:53;;;;;;;11.00;7.07;;;8.60;99.90;;;;;;5014964;28;20033;-84
2022/09/29 03:47:18;;;;;;;12.80;7.60;;;8.60;99.90;;;;;;5014759;28;20030;-83
2022/09/29 03:49:44;;;;;;;9.23;7.30;;;8.60;99.90;;;;;;5015093;28;20022;-79
2022/09/29 03:52:10;;;;;;;13.23;7.53;;;8.60;99.90;;;;;;5014816;28;20014;-82
2022/09/29 03:54:35;;;;;;;11.82;7.68;;;8.60;99.90;;;;;;5014706;28;20065;-78
2022/09/29 03:57:01;;;;;;;15.00;7.88;;;8.60;99.90;;;;;;5014687;28;20117;-83
2022/09/29 03:59:26;;;;;;;13.85;8.10;;;8.60;99.90;;;;;;5015857;28;20048;-78
2022/09/29 04:01:52;;;;;;;11.43;7.90;;;8.70;99.90;;;;;;5016026;28;20092;-78
2022/09/29 04:04:17;;;;;;;12.05;7.47;;;8.70;99.90;;;;;;5015622;28;20100;-79
2022/09/29 04:06:43;;;;;;;14.77;9.50;;;8.70;99.90;;;;;;5014245;28;20408;-83
2022/09/29 04:09:09;;;;;;;18.77;11.20;;;8.60;99.90;;;;;;5014621;28;20025;-79
2022/09/29 04:11:34;;;;;;;23.30;11.93;;;8.60;99.90;;;;;;5015780;28;20028;-83
2022/09/29 04:14:00;;;;;;;14.98;9.50;;;8.60;99.90;;;;;;5015536;28;20026;-79
2022/09/29 04:16:26;;;;;;;14.90;8.57;;;8.70;99.90;;;;;;5014376;28;20109;-82
2022/09/29 04:18:51;;;;;;;13.02;8.80;;;8.60;99.90;;;;;;5014476;28;20022;-79
2022/09/29 04:21:17;;;;;;;12.75;8.45;;;8.70;99.90;;;;;;5032475;28;20049;-80
2022/09/29 04:23:42;;;;;;;18.60;9.93;;;8.70;99.90;;;;;;5035153;28;20030;-84
2022/09/29 04:26:08;;;;;;;15.02;10.38;;;8.70;99.90;;;;;;5035248;28;20017;-79
2022/09/29 04:28:35;;;;;;;15.75;10.75;;;8.70;99.90;;;;;;5034985;28;20077;-83
2022/09/29 04:31:01;;;;;;;19.45;11.85;;;8.70;99.90;;;;;;5035334;28;20056;-84
2022/09/29 04:33:28;;;;;;;22.92;12.75;;;8.70;99.90;;;;;;5034977;28;20495;-83
2022/09/29 04:35:54;;;;;;;22.23;12.98;;;8.70;99.90;;;;;;5017178;28;20022;-84
2022/09/29 04:38:20;;;;;;;20.98;14.48;;;8.70;99.90;;;;;;5034981;28;20079;-78
2022/09/29 04:40:46;;;;;;;42.92;20.42;;;8.70;99.90;;;;;;5017086;28;20112;-83
2022/09/29 04:43:12;;;;;;;28.15;16.02;;;8.70;99.90;;;;;;5034796;28;20153;-79
2022/09/29 04:45:38;;;;;;;24.55;15.27;;;8.60;99.90;;;;;;5034839;28;20084;-80
2022/09/29 04:48:04;;;;;;;16.08;10.30;;;8.70;99.90;;;;;;5016905;28;20550;-84
2022/09/29 04:50:29;;;;;;;23.70;11.43;;;8.60;99.90;;;;;;5016712;28;20375;-79
2022/09/29 04:52:55;;;;;;;34.35;19.23;;;8.60;99.90;;;;;;5033633;28;20032;-84
2022/09/29 04:55:21;;;;;;;22.05;13.05;;;8.50;99.90;;;;;;5034870;28;20041;-84
2022/09/29 04:57:47;;;;;;;16.48;11.05;;;8.50;99.90;;;;;;5033483;28;20026;-80
2022/09/29 05:00:14;;;;;;;14.45;10.65;;;8.50;99.90;;;;;;5033495;28;20563;-79
2022/09/29 05:02:40;;;;;;;16.80;11.98;;;8.50;99.90;;;;;;5034792;28;20383;-80
2022/09/29 05:05:06;;;;;;;23.58;13.48;;;8.50;99.90;;;;;;5021414;28;20108;-79
2022/09/29 05:07:36;;;;;;;21.63;12.77;;;8.50;99.90;;;;;;4996673;28;20443;-79
2022/09/29 05:10:03;;;;;;;15.57;11.02;;;8.50;99.90;;;;;;4996614;28;20108;-88
2022/09/29 05:12:29;;;;;;;19.95;12.30;;;8.50;99.90;;;;;;5014531;28;20395;-83
2022/09/29 05:14:54;;;;;;;17.58;10.48;;;8.50;99.90;;;;;;5014555;28;20025;-77
2022/09/29 05:17:20;;;;;;;23.08;12.27;;;8.50;99.90;;;;;;5016488;28;20108;-77
2022/09/29 05:19:45;;;;;;;40.92;18.65;;;8.50;99.90;;;;;;5000928;28;20111;-77
2022/09/29 05:22:11;;;;;;;60.13;24.50;;;8.50;99.90;;;;;;5029325;28;20109;-85
2022/09/29 05:24:37;;;;;;;127.18;46.75;;;8.50;99.90;;;;;;5023257;28;20025;-85
2022/09/29 05:27:02;;;;;;;164.07;54.90;;;8.50;99.90;;;;;;5031433;28;20036;-85
2022/09/29 05:29:28;;;;;;;75.18;30.52;;;8.50;99.90;;;;;;5032766;28;20018;-82
2022/09/29 05:31:53;;;;;;;63.92;24.27;;;8.50;99.90;;;;;;5014996;28;20022;-78
2022/09/29 05:34:19;;;;;;;50.03;21.13;;;8.50;99.90;;;;;;5032524;28;20025;-82
2022/09/29 05:36:45;;;;;;;38.78;17.05;;;8.50;99.90;;;;;;5031255;28;20383;-82
2022/09/29 05:39:11;;;;;;;37.25;16.73;;;8.60;99.90;;;;;;5014572;28;20070;-80
2022/09/29 05:41:36;;;;;;;35.50;15.45;;;8.60;99.90;;;;;;5024123;28;20515;-82
2022/09/29 05:44:02;;;;;;;33.53;14.50;;;8.60;99.90;;;;;;5019225;28;20034;-80
2022/09/29 05:46:28;;;;;;;46.45;17.70;;;8.60;99.90;;;;;;5028091;28;20434;-81
2022/09/29 05:48:54;;;;;;;75.05;26.92;;;8.60;99.90;;;;;;5030512;28;20071;-79
2022/09/29 05:51:23;;;;;;;83.18;31.45;;;8.60;99.90;;;;;;5032577;28;20017;-79
2022/09/29 05:53:50;;;;;;;81.55;30.85;;;8.60;99.90;;;;;;5030121;28;20033;-80
2022/09/29 05:56:18;;;;;;;68.95;28.88;;;8.60;99.90;;;;;;5030183;28;20384;-80
2022/09/29 05:58:44;;;;;;;45.20;21.77;;;8.70;99.90;;;;;;5032346;28;20025;-79
2022/09/29 06:01:21;;;;;;;31.75;17.25;;;8.70;99.90;;;;;;5015750;28;20104;-80
2022/09/29 06:03:47;;;;;;;28.08;15.65;;;8.80;99.90;;;;;;5031021;28;20031;-79
2022/09/29 06:06:16;;;;;;;28.48;15.13;;;8.80;99.90;;;;;;5031339;28;20108;-80
2022/09/29 06:08:43;;;;;;;26.20;14.90;;;8.80;99.90;;;;;;5030319;28;20041;-79
2022/09/29 06:11:14;;;;;;;22.98;16.67;;;8.80;99.90;;;;;;5045101;28;20080;-80
2022/09/29 06:13:42;;;;;;;27.95;15.57;;;8.90;99.90;;;;;;5050178;28;20534;-80
2022/09/29 06:16:09;;;;;;;24.30;13.75;;;8.90;99.90;;;;;;5030619;28;20032;-79
2022/09/29 06:18:35;;;;;;;23.98;14.95;;;9.10;99.90;;;;;;5032255;28;20017;-80
2022/09/29 06:21:06;;;;;;;24.98;14.63;;;9.10;99.90;;;;;;5013527;28;20174;-80
2022/09/29 06:23:33;;;;;;;23.23;14.97;;;9.20;99.90;;;;;;5021083;28;20030;-80
2022/09/29 06:26:00;;;;;;;22.45;14.35;;;9.20;99.90;;;;;;5013359;28;20272;-79
2022/09/29 06:28:27;;;;;;;22.80;14.77;;;9.30;99.90;;;;;;5031446;28;20084;-80
2022/09/29 06:30:58;;;;;;;26.58;14.95;;;9.30;99.90;;;;;;5031900;28;20151;-80
2022/09/29 06:33:23;;;;;;;22.45;14.27;;;9.40;99.90;;;;;;5014212;28;20030;-80
2022/09/29 06:38:33;;;;;;;21.40;14.18;;;9.30;99.90;;;;;;5013468;28;20408;-79
2022/09/29 06:40:59;;;;;;;21.67;13.88;;;9.30;99.90;;;;;;5013204;28;20018;-80
2022/09/29 06:43:24;;;;;;;24.60;14.45;;;9.40;99.90;;;;;;4995850;28;20037;-80
2022/09/29 06:45:50;;;;;;;25.75;15.48;;;9.40;99.90;;;;;;5013226;28;20033;-80
2022/09/29 06:48:16;;;;;;;26.27;17.48;;;9.40;99.90;;;;;;4995738;28;20492;-80
2022/09/29 06:50:41;;;;;;;26.02;14.88;;;9.50;99.90;;;;;;5013217;28;20460;-80
2022/09/29 06:53:07;;;;;;;22.92;13.52;;;9.50;99.90;;;;;;5013403;28;20030;-80
2022/09/29 06:55:32;;;;;;;27.15;15.57;;;9.50;99.90;;;;;;5014865;28;20030;-80
2022/09/29 06:57:58;;;;;;;41.42;21.35;;;9.50;99.90;;;;;;5033053;28;20032;-80
2022/09/29 07:00:24;;;;;;;37.38;20.92;;;9.60;99.90;;;;;;5033041;28;20022;-80
2022/09/29 07:02:50;;;;;;;29.10;16.52;;;9.60;99.90;;;;;;5015187;28;20427;-80
2022/09/29 07:05:15;;;;;;;32.72;17.30;;;9.70;99.90;;;;;;5015317;28;20399;-80
2022/09/29 07:07:41;;;;;;;28.17;15.52;;;9.70;99.90;;;;;;5032756;28;20120;-80
2022/09/29 07:10:08;;;;;;;22.23;13.98;;;9.80;99.90;;;;;;5032832;28;20021;-80
2022/09/29 07:12:34;;;;;;;26.60;15.07;;;9.90;99.90;;;;;;5032885;28;20487;-80
2022/09/29 07:15:00;;;;;;;21.08;13.88;;;9.90;99.90;;;;;;5032825;28;20034;-80
2022/09/29 07:17:25;;;;;;;22.80;13.25;;;9.90;99.90;;;;;;5032895;28;20032;-80
2022/09/29 07:19:54;;;;;;;22.00;14.18;;;9.90;99.90;;;;;;5032671;28;20509;-80
2022/09/29 07:22:19;;;;;;;25.98;16.02;;;10.00;99.90;;;;;;5032706;28;20028;-80
2022/09/29 07:24:46;;;;;;;23.85;14.45;;;9.90;99.90;;;;;;5032760;28;20025;-80
2022/09/29 07:27:12;;;;;;;24.90;15.30;;;10.00;99.90;;;;;;5032560;28;20025;-80
2022/09/29 07:29:37;;;;;;;27.40;15.15;;;10.00;99.90;;;;;;5014936;28;20028;-80
2022/09/29 07:32:03;;;;;;;22.42;14.60;;;10.10;99.90;;;;;;5033677;28;20483;-80
2022/09/29 07:34:29;;;;;;;24.60;16.27;;;10.10;99.90;;;;;;5036211;28;20108;-80
2022/09/29 07:36:54;;;;;;;19.83;14.02;;;10.20;99.90;;;;;;5033009;28;20047;-80
2022/09/29 07:39:21;;;;;;;25.13;16.23;;;10.30;99.90;;;;;;5034904;28;20032;-80
2022/09/29 07:41:47;;;;;;;25.83;16.15;;;10.30;99.90;;;;;;5034759;28;20533;-80
2022/09/29 07:44:13;;;;;;;27.60;17.17;;;10.30;99.90;;;;;;5034714;28;20025;-80
2022/09/29 07:46:38;;;;;;;22.02;13.13;;;10.40;99.90;;;;;;5035979;28;20548;-80
2022/09/29 07:49:04;;;;;;;21.02;13.20;;;10.30;99.90;;;;;;5035865;28;20423;-80
2022/09/29 07:51:29;;;;;;;24.88;13.02;;;10.30;99.90;;;;;;5035900;28;20014;-80
2022/09/29 07:54:01;;;;;;;25.58;13.48;;;10.40;99.90;;;;;;5034684;28;20040;-80
2022/09/29 07:56:26;;;;;;;23.55;13.70;;;10.40;99.90;;;;;;5034723;28;20024;-80
2022/09/29 07:58:52;;;;;;;22.15;12.43;;;10.40;99.90;;;;;;5034401;28;20507;-80
2022/09/29 08:01:19;;;;;;;21.60;13.13;;;10.50;99.90;;;;;;5035892;28;20018;-80
2022/09/29 08:03:53;;;;;;;24.15;13.38;;;10.40;99.90;;;;;;5034324;28;20491;-80
2022/09/29 08:06:19;;;;;;;19.02;12.65;;;10.50;99.90;;;;;;5034439;28;20071;-80
2022/09/29 08:08:46;;;;;;;18.30;11.50;;;10.50;99.90;;;;;;5035498;28;20037;-80
2022/09/29 08:11:13;;;;;;;15.60;9.80;;;10.60;99.90;;;;;;5034451;28;20487;-80
2022/09/29 08:13:40;;;;;;;17.27;10.82;;;10.60;99.90;;;;;;5035523;28;20028;-80
2022/09/29 08:16:10;;;;;;;16.05;9.32;;;10.60;99.90;;;;;;5035564;28;20434;-80
2022/09/29 08:18:36;;;;;;;12.25;8.55;;;10.70;99.90;;;;;;5034238;28;20029;-80
2022/09/29 08:21:03;;;;;;;14.52;9.82;;;10.70;99.90;;;;;;5035364;28;20048;-80
2022/09/29 08:23:28;;;;;;;14.20;9.07;;;10.70;99.90;;;;;;5034015;28;20109;-79
2022/09/29 08:26:13;;;;;;;10.77;7.60;;;10.80;99.90;;;;;;5034046;28;20030;-80
2022/09/29 08:28:39;;;;;;;16.52;8.65;;;10.80;99.90;;;;;;5034893;28;20061;-80
2022/09/29 08:31:08;;;;;;;14.27;8.95;;;10.80;99.90;;;;;;5035367;28;20026;-80
2022/09/29 08:33:35;;;;;;;12.00;7.55;;;10.80;99.90;;;;;;5035052;28;20379;-80
2022/09/29 08:36:04;;;;;;;14.60;9.30;;;10.90;99.90;;;;;;5034944;28;20034;-80
2022/09/29 08:38:31;;;;;;;16.17;9.40;;;10.90;99.90;;;;;;5033960;28;20025;-80
2022/09/29 08:41:02;;;;;;;16.40;9.85;;;11.00;99.90;;;;;;5035037;28;20026;-80
2022/09/29 08:43:37;;;;;;;15.53;10.10;;;11.00;99.90;;;;;;5034143;28;20109;-80
2022/09/29 08:46:39;;;;;;;12.95;8.60;;;11.10;99.90;;;;;;5033689;28;20411;-80
2022/09/29 08:49:17;;;;;;;12.35;8.18;;;11.10;99.90;;;;;;5033539;28;20042;-80
2022/09/29 08:51:48;;;;;;;16.25;9.43;;;11.20;99.90;;;;;;5035007;28;20029;-80
2022/09/29 08:54:31;;;;;;;12.40;8.55;;;11.30;99.90;;;;;;5034770;28;20048;-80
2022/09/29 08:56:58;;;;;;;10.02;7.47;;;11.40;99.90;;;;;;5034268;28;20017;-80
2022/09/29 08:59:26;;;;;;;11.25;7.38;;;11.40;99.90;;;;;;5016241;28;20028;-80
2022/09/29 09:02:16;;;;;;;12.02;6.97;;;11.40;99.90;;;;;;5016930;28;20037;-80
2022/09/29 09:04:54;;;;;;;10.75;7.22;;;11.50;99.90;;;;;;5034669;28;20025;-77
2022/09/29 09:07:34;;;;;;;16.35;8.18;;;11.50;99.90;;;;;;5016334;28;20034;-77
2022/09/29 09:10:46;;;;;;;10.35;6.72;;;11.50;99.90;;;;;;5034445;28;20025;-77
2022/09/29 09:13:14;;;;;;;12.95;7.20;;;11.60;99.90;;;;;;5034478;28;20030;-77
2022/09/29 09:15:47;;;;;;;10.05;6.50;;;11.60;99.90;;;;;;5016663;28;20025;-78
2022/09/29 09:18:37;;;;;;;7.70;5.47;;;11.70;99.90;;;;;;5016794;28;20029;-78
2022/09/29 09:21:17;;;;;;;7.28;5.80;;;11.70;99.90;;;;;;5034424;28;20049;-77
2022/09/29 09:23:55;;;;;;;7.70;5.80;;;11.70;99.90;;;;;;5034211;28;20021;-77
2022/09/29 09:26:40;;;;;;;8.23;6.40;;;11.70;99.90;;;;;;5034319;28;20100;-78
2022/09/29 09:29:33;;;;;;;7.28;5.53;;;11.80;99.90;;;;;;5034110;28;20034;-77
2022/09/29 09:32:08;;;;;;;9.43;5.60;;;11.70;99.90;;;;;;5034084;28;20052;-77
2022/09/29 09:34:48;;;;;;;6.78;5.20;;;11.80;99.90;;;;;;5016369;28;20021;-77
2022/09/29 09:37:38;;;;;;;7.63;5.40;;;11.80;99.90;;;;;;5034070;28;20033;-77
2022/09/29 09:40:11;;;;;;;8.18;5.25;;;11.80;99.90;;;;;;5033868;28;20032;-77
2022/09/29 09:42:41;;;;;;;4.32;3.10;;;11.80;99.90;;;;;;5016287;28;20072;-77
2022/09/29 09:45:16;;;;;;;5.47;3.90;;;11.80;99.90;;;;;;5033928;28;20425;-78
2022/09/29 09:47:48;;;;;;;5.95;3.38;;;11.80;99.90;;;;;;5033822;28;20029;-77
2022/09/29 09:50:21;;;;;;;4.95;3.50;;;11.90;99.90;;;;;;5033731;28;20018;-78
2022/09/29 09:52:52;;;;;;;5.30;3.83;;;11.80;99.90;;;;;;5033800;28;20108;-77
2022/09/29 09:55:26;;;;;;;6.68;3.50;;;11.80;99.90;;;;;;5015776;28;20067;-77
2022/09/29 09:58:22;;;;;;;5.32;4.45;;;11.80;99.90;;;;;;5016003;28;20034;-78
2022/09/29 10:01:09;;;;;;;6.15;4.13;;;11.90;99.90;;;;;;5033815;28;20029;-78
2022/09/29 10:03:35;;;;;;;4.28;3.63;;;12.00;99.90;;;;;;5033580;28;20018;-78
2022/09/29 10:06:02;;;;;;;6.45;3.50;;;12.00;99.90;;;;;;5033538;28;20479;-77
2022/09/29 10:08:38;;;;;;;4.72;3.45;;;11.90;99.90;;;;;;5033577;28;20040;-77
2022/09/29 10:11:14;;;;;;;3.90;3.28;;;11.90;99.90;;;;;;5033674;28;20059;-77
2022/09/29 10:13:40;;;;;;;4.03;3.55;;;11.90;99.90;;;;;;5033305;28;20387;-78
2022/09/29 10:16:09;;;;;;;4.18;3.40;;;11.90;99.90;;;;;;5015435;28;20018;-78
2022/09/29 10:18:44;;;;;;;3.50;3.20;;;11.90;99.90;;;;;;5033227;28;20086;-77
2022/09/29 10:21:25;;;;;;;6.18;3.75;;;11.90;99.90;;;;;;5033334;28;20052;-77
2022/09/29 10:23:52;;;;;;;4.63;3.70;;;11.90;99.90;;;;;;5033223;28;20025;-78
2022/09/29 10:26:33;;;;;;;6.07;3.58;;;11.90;99.90;;;;;;5033046;28;20026;-78
2022/09/29 10:29:41;;;;;;;5.53;3.83;;;11.80;99.90;;;;;;5015207;28;20040;-77
2022/09/29 10:32:35;;;;;;;7.65;3.92;;;11.90;99.90;;;;;;4933627;29;20030;-78
2022/09/29 10:35:04;;;;;;;;;;;11.90;99.90;;;;;;4944305;29;20481;-76
2022/09/29 10:37:34;;;;;;;4.03;3.63;;;11.90;99.90;;;;;;4987834;28;19910;-78
2022/09/29 10:40:12;;;;;;;4.10;3.70;;;11.90;99.90;;;;;;4996951;28;20538;-78
2022/09/29 10:42:40;;;;;;;3.53;3.22;;;11.90;99.90;;;;;;5030105;28;20065;-78
2022/09/29 10:45:06;;;;;;;4.20;3.80;;;11.80;99.90;;;;;;5025610;28;20032;-78
2022/09/29 10:47:33;;;;;;;7.25;3.65;;;11.90;99.90;;;;;;5022637;28;20034;-79
2022/09/29 10:50:13;;;;;;;5.38;3.67;;;11.90;99.90;;;;;;5029303;28;20029;-80
2022/09/29 10:52:52;;;;;;;6.97;3.58;;;11.90;99.90;;;;;;5013991;28;20088;-80
2022/09/29 10:55:25;;;;;;;6.35;3.25;;;11.80;99.90;;;;;;5006440;28;20026;-79
2022/09/29 10:57:51;;;;;;;;;;;11.70;99.90;;;;;;4995990;28;20041;-79
2022/09/29 11:00:36;;;;;;;3.20;2.78;;;11.70;99.90;;;;;;5012957;28;20385;-79
2022/09/29 11:03:17;;;;;;;4.40;3.17;;;11.80;99.90;;;;;;4995411;28;20500;-79
2022/09/29 11:06:00;;;;;;;4.93;3.13;;;11.80;99.90;;;;;;5012877;28;20105;-78
2022/09/29 11:08:26;;;;;;;3.20;2.75;;;11.90;99.90;;;;;;4998817;28;20038;-78
2022/09/29 11:11:04;;;;;;;6.43;3.08;;;11.90;99.90;;;;;;5016456;28;20026;-79
2022/09/29 11:13:35;;;;;;;4.43;3.20;;;12.00;99.90;;;;;;5016775;28;20022;-78
2022/09/29 11:16:26;;;;;;;4.57;3.20;;;12.00;99.90;;;;;;5016385;28;20018;-81
2022/09/29 11:18:56;;;;;;;5.30;3.65;;;12.10;99.90;;;;;;5016718;28;20036;-81
2022/09/29 11:21:45;;;;;;;5.88;4.55;;;12.10;99.90;;;;;;5016526;28;20496;-81
2022/09/29 11:24:22;;;;;;;7.65;4.63;;;12.10;99.90;;;;;;5018397;28;20064;-82
2022/09/29 11:27:11;;;;;;;4.72;4.20;;;12.20;99.90;;;;;;5024913;28;20022;-82
2022/09/29 11:29:49;;;;;;;7.43;4.65;;;12.40;99.90;;;;;;5021777;28;20029;-77
2022/09/29 11:32:29;;;;;;;10.40;6.35;;;12.40;99.90;;;;;;5043289;28;20107;-77
2022/09/29 11:35:04;;;;;;;8.43;5.10;;;12.60;99.90;;;;;;5026023;28;20590;-77
2022/09/29 11:37:54;;;;;;;7.45;4.75;;;12.60;99.90;;;;;;5043560;28;20040;-77
2022/09/29 11:40:41;;;;;;;6.13;4.40;;;12.70;99.90;;;;;;5044339;28;20021;-82
2022/09/29 11:43:33;;;;;;;8.35;4.75;;;12.70;99.90;;;;;;5024909;28;20025;-78
2022/09/29 11:46:10;;;;;;;5.97;4.05;;;12.70;99.90;;;;;;5041138;28;20013;-85
2022/09/29 11:48:59;;;;;;;6.35;3.30;;;12.80;99.30;;;;;;5045134;28;20037;-78
2022/09/29 11:51:30;;;;;;;3.28;2.60;;;12.80;91.90;;;;;;5024189;28;20472;-78
2022/09/29 11:54:02;;;;;;;6.70;3.25;;;12.80;84.10;;;;;;5025169;28;20084;-79
2022/09/29 11:56:48;;;;;;;3.53;2.93;;;12.70;86.40;;;;;;5043537;28;20025;-78
2022/09/29 11:59:32;;;;;;;7.65;3.10;;;12.80;91.70;;;;;;5026221;28;20076;-78
2022/09/29 12:02:01;;;;;;;4.00;2.92;;;13.00;91.00;;;;;;5027085;28;20028;-78
2022/09/29 12:04:47;;;;;;;3.30;2.50;;;13.00;91.80;;;;;;5025017;28;20378;-83
2022/09/29 12:07:31;;;;;;;3.45;2.53;;;13.10;91.20;;;;;;5032944;28;20055;-78
2022/09/29 12:10:35;;;;;;;5.82;3.25;;;13.20;87.10;;;;;;5021266;28;20029;-83
2022/09/29 12:13:21;;;;;;;4.05;3.03;;;13.10;86.00;;;;;;5032064;28;20029;-79
2022/09/29 12:16:00;;;;;;;5.70;3.53;;;13.20;84.30;;;;;;5031940;28;20026;-83
2022/09/29 12:18:37;;;;;;;7.22;4.50;;;13.40;89.70;;;;;;5030707;28;20021;-83
2022/09/29 12:21:06;;;;;;;4.43;3.33;;;13.50;95.70;;;;;;5013855;28;20061;-78
2022/09/29 12:23:36;;;;;;;6.72;4.40;;;13.60;92.00;;;;;;5031947;28;20021;-78
2022/09/29 12:26:02;;;;;;;5.97;3.75;;;13.70;95.00;;;;;;5017115;28;20033;-79
2022/09/29 12:28:46;;;;;;;7.10;4.13;;;13.80;87.80;;;;;;5017073;28;20033;-83
2022/09/29 12:31:19;;;;;;;6.25;4.30;;;13.80;86.70;;;;;;5017038;28;20029;-83
2022/09/29 12:34:11;;;;;;;6.60;5.20;;;13.80;86.90;;;;;;5017031;28;20421;-83
2022/09/29 12:36:43;;;;;;;7.23;4.60;;;13.60;86.20;;;;;;5034277;28;20041;-83
2022/09/29 12:39:26;;;;;;;8.40;5.28;;;13.50;88.30;;;;;;5034613;28;20434;-83
2022/09/29 12:42:05;;;;;;;9.07;5.97;;;13.50;92.90;;;;;;5016894;28;20132;-84
2022/09/29 12:44:45;;;;;;;10.27;6.68;;;13.40;97.90;;;;;;5034519;28;20108;-80
2022/09/29 12:47:37;;;;;;;9.57;6.63;;;13.20;99.90;;;;;;5034757;28;20494;-78
2022/09/29 12:50:10;;;;;;;10.20;6.60;;;12.90;99.90;;;;;;5034363;28;20030;-78
2022/09/29 12:53:08;;;;;;;8.60;6.13;;;12.80;99.90;;;;;;5034344;28;20032;-83
2022/09/29 12:56:10;;;;;;;10.00;6.53;;;12.70;99.90;;;;;;4996215;28;20079;-83
2022/09/29 12:58:53;;;;;;;10.43;6.40;;;12.60;99.90;;;;;;5018422;28;20045;-82
2022/09/29 13:01:20;;;;;;;12.25;7.10;;;12.70;99.90;;;;;;5016510;28;20064;-81
2022/09/29 13:03:55;;;;;;;12.35;6.95;;;12.70;99.90;;;;;;5024186;28;20033;-76
2022/09/29 13:06:47;;;;;;;10.38;6.78;;;12.70;99.90;;;;;;5031799;28;20056;-76
2022/09/29 13:09:46;;;;;;;5.47;4.90;;;12.80;99.90;;;;;;5020203;28;20383;-80
2022/09/29 13:12:40;;;;;;;9.68;6.32;;;12.90;99.90;;;;;;5021706;28;20349;-81